Time;durP1;ratioP1;P1;durP2;ratioP2;P2;SDS_P1;SDS_P2;PMS_P1;PMS_P2;Temp;Humidity;BMP_temperature;BMP_pressure;BME280_temperature;BME280_humidity;BME280_pressure;Samples;Min_cycle;Max_cycle;Signal;HPM_P1;HPM_P2
2023/04/25 00:01:38;;;;;;;5.23;4.93;;;8.50;66.90;;;;;;6270970;28;20311;-83
2023/04/25 00:04:41;;;;;;;5.10;4.80;;;8.50;66.60;;;;;;6264438;28;20233;-84
2023/04/25 00:07:45;;;;;;;4.63;4.53;;;8.50;66.40;;;;;;6266610;28;20401;-87
2023/04/25 00:10:49;;;;;;;4.53;4.30;;;8.50;66.40;;;;;;6269712;28;20238;-87
2023/04/25 00:13:54;;;;;;;4.57;4.37;;;8.40;66.40;;;;;;6247809;28;20230;-84
2023/04/25 00:16:57;;;;;;;4.40;4.20;;;8.50;66.20;;;;;;6259715;28;20695;-85
2023/04/25 00:20:00;;;;;;;5.00;4.70;;;8.50;65.70;;;;;;6265013;28;20231;-83
2023/04/25 00:23:04;;;;;;;5.40;4.77;;;8.50;65.80;;;;;;6262055;28;20230;-85
2023/04/25 00:26:07;;;;;;;4.53;4.33;;;8.40;65.70;;;;;;6253472;28;20865;-88
2023/04/25 00:29:12;;;;;;;4.87;4.50;;;8.50;65.50;;;;;;6266570;28;20237;-86
2023/04/25 00:32:15;;;;;;;4.20;4.03;;;8.40;65.30;;;;;;6266191;28;20833;-83
2023/04/25 00:35:18;;;;;;;5.40;5.00;;;8.40;65.20;;;;;;6258943;28;20229;-85
2023/04/25 00:38:21;;;;;;;5.30;4.80;;;8.40;65.30;;;;;;6248258;28;20241;-85
2023/04/25 00:41:27;;;;;;;8.10;5.23;;;8.40;65.20;;;;;;6260178;28;20246;-82
2023/04/25 00:44:32;;;;;;;4.70;4.50;;;8.50;65.20;;;;;;6256776;28;20242;-81
2023/04/25 00:47:37;;;;;;;5.07;4.57;;;8.50;65.10;;;;;;6261233;28;20246;-84
2023/04/25 00:50:40;;;;;;;7.90;4.77;;;8.50;65.30;;;;;;6255549;28;20249;-86
2023/04/25 00:53:44;;;;;;;5.00;4.30;;;8.50;65.30;;;;;;6268159;28;20238;-83
2023/04/25 00:56:47;;;;;;;4.43;4.20;;;8.50;65.30;;;;;;6270513;28;20483;-83
2023/04/25 00:59:53;;;;;;;4.90;4.53;;;8.50;65.30;;;;;;6266382;28;20297;-84
2023/04/25 01:02:56;;;;;;;5.07;4.50;;;8.40;65.50;;;;;;6269446;28;20244;-86
2023/04/25 02:02:43;;;;;;;5.90;5.27;;;8.40;65.30;;;;;;6248691;28;20242;-81
2023/04/25 02:05:46;;;;;;;9.33;5.73;;;8.40;65.50;;;;;;6280879;28;20290;-81
2023/04/25 02:08:50;;;;;;;6.60;5.87;;;8.40;65.60;;;;;;6286234;28;20249;-80
2023/04/25 02:11:54;;;;;;;6.47;5.87;;;8.40;65.60;;;;;;6277730;28;20241;-87
2023/04/25 02:14:57;;;;;;;6.27;5.83;;;8.40;65.70;;;;;;6271602;28;20237;-89
2023/04/25 02:18:02;;;;;;;6.50;5.80;;;8.30;65.70;;;;;;6270194;28;20229;-88
2023/04/25 02:21:05;;;;;;;6.30;5.80;;;8.30;65.70;;;;;;6262278;28;20234;-85
2023/04/25 02:24:09;;;;;;;6.70;6.07;;;8.40;65.70;;;;;;6265438;28;20235;-84
2023/04/25 02:27:12;;;;;;;6.23;5.83;;;8.30;65.70;;;;;;6269812;28;20233;-86
2023/04/25 02:30:15;;;;;;;8.67;6.70;;;8.20;65.90;;;;;;6271314;28;20242;-83
2023/04/25 02:33:21;;;;;;;6.13;5.63;;;8.20;65.90;;;;;;6271851;28;20238;-84
2023/04/25 02:36:26;;;;;;;6.83;6.13;;;8.30;65.80;;;;;;6261896;28;20238;-88
2023/04/25 02:39:29;;;;;;;6.13;5.57;;;8.30;65.60;;;;;;6264309;28;20248;-84
2023/04/25 02:42:32;;;;;;;7.70;5.97;;;8.20;65.80;;;;;;6264414;28;20485;-86
2023/04/25 02:45:37;;;;;;;7.97;6.23;;;8.20;66.00;;;;;;6245763;28;20645;-84
2023/04/25 02:48:42;;;;;;;10.13;6.83;;;8.20;65.80;;;;;;6236177;28;20304;-84
2023/04/25 02:51:45;;;;;;;6.53;5.97;;;8.30;65.90;;;;;;6242283;28;20223;-82
2023/04/25 02:54:48;;;;;;;7.30;5.67;;;8.20;66.00;;;;;;6265201;28;20367;-86
2023/04/25 02:57:51;;;;;;;6.23;5.73;;;8.20;66.10;;;;;;6263529;28;20230;-85
2023/04/25 03:00:54;;;;;;;6.93;6.40;;;8.20;66.00;;;;;;6251830;28;20218;-83
2023/04/25 03:03:59;;;;;;;7.97;6.53;;;8.20;65.90;;;;;;6266572;28;20274;-80
2023/04/25 03:07:02;;;;;;;7.27;6.57;;;8.20;66.10;;;;;;6266495;28;20312;-83
2023/04/25 03:10:06;;;;;;;7.37;6.57;;;8.20;66.10;;;;;;6265114;28;20234;-81
2023/04/25 03:13:10;;;;;;;6.77;6.17;;;8.20;66.00;;;;;;6267689;28;20249;-80
2023/04/25 03:16:13;;;;;;;6.67;6.17;;;8.20;65.90;;;;;;6259107;28;20222;-80
2023/04/25 03:19:20;;;;;;;6.40;5.90;;;8.20;66.00;;;;;;6265585;28;20386;-79
2023/04/25 03:22:23;;;;;;;8.73;6.47;;;8.20;66.20;;;;;;6284233;28;20242;-79
2023/04/25 03:25:26;;;;;;;7.60;6.90;;;8.20;66.00;;;;;;6282797;28;20286;-83
2023/04/25 03:28:29;;;;;;;6.90;6.33;;;8.20;66.00;;;;;;6259291;28;20238;-85
2023/04/25 03:31:32;;;;;;;8.67;6.70;;;8.20;66.00;;;;;;6252647;28;20635;-77
2023/04/25 03:34:37;;;;;;;6.73;6.33;;;8.20;66.10;;;;;;6256758;28;20241;-80
2023/04/25 03:37:45;;;;;;;7.03;6.63;;;8.10;66.40;;;;;;6244649;28;20238;-81
2023/04/25 03:40:50;;;;;;;7.40;6.80;;;8.10;66.20;;;;;;6248669;28;20639;-81
2023/04/25 03:43:53;;;;;;;7.43;6.67;;;8.20;66.10;;;;;;6242900;28;20277;-79
2023/04/25 03:46:56;;;;;;;7.23;6.53;;;8.20;66.20;;;;;;6245669;28;20226;-82
2023/04/25 03:50:02;;;;;;;7.00;6.30;;;8.10;66.40;;;;;;6243625;28;20235;-78
2023/04/25 03:53:06;;;;;;;7.77;6.60;;;8.20;66.30;;;;;;6243124;28;20287;-80
2023/04/25 03:56:09;;;;;;;6.67;5.90;;;8.20;66.30;;;;;;6257475;28;20318;-78
2023/04/25 03:59:12;;;;;;;8.50;6.53;;;8.20;66.40;;;;;;6292002;28;20238;-77
2023/04/25 04:02:15;;;;;;;7.30;6.60;;;8.20;66.40;;;;;;6292829;28;20237;-78
2023/04/25 04:05:20;;;;;;;7.20;6.57;;;8.20;66.30;;;;;;6294833;28;20253;-77
2023/04/25 04:08:23;;;;;;;9.13;6.90;;;8.20;66.20;;;;;;6292809;28;20542;-78
2023/04/25 04:11:28;;;;;;;7.10;6.50;;;8.10;66.20;;;;;;6291964;28;20230;-77
2023/04/25 04:14:33;;;;;;;7.13;6.50;;;8.10;66.50;;;;;;6294730;28;20241;-77
2023/04/25 04:17:36;;;;;;;6.63;6.03;;;8.10;66.40;;;;;;6294002;28;20238;-80
2023/04/25 04:20:41;;;;;;;7.13;6.50;;;8.20;66.20;;;;;;6256311;28;20265;-78
2023/04/25 04:23:46;;;;;;;6.83;6.23;;;8.20;66.40;;;;;;6285090;28;20253;-81
2023/04/25 04:26:50;;;;;;;7.97;6.57;;;8.20;66.20;;;;;;6265953;28;20231;-79
2023/04/25 04:29:53;;;;;;;7.10;6.50;;;8.20;66.40;;;;;;6278474;28;20674;-76
2023/04/25 04:32:56;;;;;;;10.07;7.30;;;8.10;66.40;;;;;;6277441;28;20264;-82
2023/04/25 04:36:03;;;;;;;7.17;6.57;;;8.20;66.40;;;;;;6268342;28;20237;-81
2023/04/25 04:39:08;;;;;;;7.03;6.37;;;8.10;66.60;;;;;;6261850;28;20230;-79
2023/04/25 04:42:12;;;;;;;6.53;5.80;;;8.10;66.50;;;;;;6257862;28;20348;-82
2023/04/25 04:45:16;;;;;;;12.87;6.70;;;8.10;66.60;;;;;;6264886;28;20230;-78
2023/04/25 04:48:21;;;;;;;8.70;6.10;;;8.20;66.40;;;;;;6264974;28;20307;-81
2023/04/25 04:51:25;;;;;;;9.80;6.20;;;8.20;66.40;;;;;;6262336;28;20741;-80
2023/04/25 04:54:30;;;;;;;8.10;6.80;;;8.20;66.40;;;;;;6258366;28;20234;-81
2023/04/25 04:57:33;;;;;;;8.97;6.53;;;8.30;66.40;;;;;;6264709;28;20230;-80
2023/04/25 05:00:37;;;;;;;6.73;6.13;;;8.30;66.10;;;;;;6253343;28;20249;-81
2023/04/25 05:03:40;;;;;;;8.07;5.90;;;8.30;66.30;;;;;;6262426;28;20257;-81
2023/04/25 05:06:45;;;;;;;7.57;6.37;;;8.30;66.20;;;;;;6253044;28;20293;-81
2023/04/25 05:09:51;;;;;;;6.83;6.27;;;8.30;66.20;;;;;;6225051;28;20245;-84
2023/04/25 05:12:54;;;;;;;7.07;6.47;;;8.30;66.10;;;;;;6245509;28;20235;-81
2023/04/25 05:15:57;;;;;;;6.67;6.07;;;8.40;66.20;;;;;;6241391;28;20227;-82
2023/04/25 05:19:00;;;;;;;8.80;6.17;;;8.40;66.10;;;;;;6238439;28;20255;-79
2023/04/25 05:22:04;;;;;;;6.97;6.03;;;8.50;65.90;;;;;;6240865;28;20350;-77
2023/04/25 05:25:08;;;;;;;8.20;6.23;;;8.60;65.80;;;;;;6246311;28;20241;-82
2023/04/25 05:28:13;;;;;;;7.10;6.50;;;8.60;65.90;;;;;;6241985;28;20239;-82
2023/04/25 05:31:16;;;;;;;9.07;5.90;;;8.60;65.80;;;;;;6249850;28;20235;-83
2023/04/25 05:34:19;;;;;;;7.23;6.13;;;8.40;65.90;;;;;;6246521;28;20226;-80
2023/04/25 05:37:23;;;;;;;6.80;6.20;;;8.40;66.10;;;;;;6238940;28;20642;-82
2023/04/25 05:40:26;;;;;;;8.20;5.90;;;8.40;65.80;;;;;;6242335;28;20237;-80
2023/04/25 05:43:30;;;;;;;6.67;6.00;;;8.40;66.10;;;;;;6243113;28;20246;-80
2023/04/25 05:46:33;;;;;;;6.53;6.03;;;8.40;66.00;;;;;;6236619;28;20235;-81
2023/04/25 05:49:36;;;;;;;6.80;6.30;;;8.40;66.40;;;;;;6234433;28;20496;-82
2023/04/25 05:52:40;;;;;;;7.67;6.27;;;8.30;66.20;;;;;;6225693;28;20231;-81
2023/04/25 05:55:43;;;;;;;7.47;6.73;;;8.40;66.20;;;;;;6225541;28;20239;-84
2023/04/25 05:58:47;;;;;;;7.53;6.83;;;8.40;66.40;;;;;;6233943;28;20238;-82
2023/04/25 06:01:50;;;;;;;7.03;6.60;;;8.50;66.30;;;;;;6237076;28;20269;-81
2023/04/25 06:04:53;;;;;;;7.63;6.80;;;8.50;66.50;;;;;;6240001;28;20253;-81
2023/04/25 06:07:58;;;;;;;9.47;7.57;;;8.50;66.40;;;;;;6239500;28;20235;-80
2023/04/25 06:11:01;;;;;;;7.80;6.97;;;8.50;66.80;;;;;;6235239;28;20238;-83
2023/04/25 06:14:04;;;;;;;11.23;6.90;;;8.50;66.80;;;;;;6262773;28;20234;-81
2023/04/25 06:17:08;;;;;;;7.50;6.80;;;8.60;66.90;;;;;;6244688;28;20227;-83
2023/04/25 06:20:12;;;;;;;8.53;7.23;;;8.60;67.00;;;;;;6252694;28;20230;-81
2023/04/25 06:23:16;;;;;;;12.33;7.40;;;8.60;67.00;;;;;;6275511;28;20226;-81
2023/04/25 06:26:20;;;;;;;8.53;7.93;;;8.60;67.00;;;;;;6260746;28;20250;-81
2023/04/25 06:29:23;;;;;;;9.87;7.30;;;8.60;67.00;;;;;;6269176;28;20737;-82
2023/04/25 06:32:28;;;;;;;8.27;7.37;;;8.60;67.20;;;;;;6264851;28;20242;-82
2023/04/25 06:35:31;;;;;;;7.93;7.13;;;8.60;67.20;;;;;;6249769;28;20305;-82
2023/04/25 06:38:36;;;;;;;10.83;7.57;;;8.70;67.20;;;;;;6267400;28;20234;-82
2023/04/25 06:41:39;;;;;;;10.83;7.10;;;8.80;67.00;;;;;;6254951;28;20234;-83
2023/04/25 06:44:42;;;;;;;9.33;7.60;;;8.80;66.90;;;;;;6262206;28;20243;-80
2023/04/25 06:47:45;;;;;;;8.10;7.03;;;8.80;67.20;;;;;;6263896;28;20238;-82
2023/04/25 06:50:48;;;;;;;8.23;7.43;;;8.80;67.00;;;;;;6262306;28;20251;-82
2023/04/25 06:53:53;;;;;;;8.20;7.43;;;8.90;67.00;;;;;;6265878;28;20227;-80
2023/04/25 06:56:56;;;;;;;8.03;6.47;;;8.90;66.70;;;;;;6252834;28;20269;-81
2023/04/25 06:59:59;;;;;;;9.00;7.10;;;8.70;67.00;;;;;;6261929;28;20249;-80
2023/04/25 07:03:04;;;;;;;8.07;7.20;;;8.70;67.40;;;;;;6267870;28;20248;-82
2023/04/25 07:06:08;;;;;;;8.27;7.50;;;8.60;67.70;;;;;;6241010;28;20237;-81
2023/04/25 07:09:12;;;;;;;8.00;7.20;;;8.70;67.50;;;;;;6257311;28;20702;-80
2023/04/25 07:12:16;;;;;;;7.57;6.50;;;8.80;67.50;;;;;;6258708;28;20258;-82
2023/04/25 07:15:19;;;;;;;7.10;6.50;;;8.80;67.30;;;;;;6233425;28;20234;-83
2023/04/25 07:18:22;;;;;;;7.90;6.70;;;8.80;67.30;;;;;;6237948;28;20241;-83
2023/04/25 07:21:25;;;;;;;7.07;6.40;;;8.80;67.60;;;;;;6240209;28;20506;-80
2023/04/25 07:24:29;;;;;;;7.97;6.73;;;8.60;68.00;;;;;;6239469;28;20242;-82
2023/04/25 07:27:33;;;;;;;7.40;6.70;;;8.50;68.40;;;;;;6227783;28;20239;-80
2023/04/25 07:30:36;;;;;;;7.27;6.53;;;8.50;68.70;;;;;;6237553;28;20239;-81
2023/04/25 07:33:39;;;;;;;7.57;6.87;;;8.40;68.90;;;;;;6241861;28;20613;-80
2023/04/25 07:36:42;;;;;;;8.67;7.20;;;8.50;69.30;;;;;;6243925;28;20261;-80
2023/04/25 07:39:47;;;;;;;8.00;7.20;;;8.50;68.70;;;;;;6242934;28;20226;-81
2023/04/25 07:42:50;;;;;;;9.87;7.40;;;8.50;68.00;;;;;;6241236;28;20247;-83
2023/04/25 07:45:54;;;;;;;10.77;7.10;;;8.40;67.80;;;;;;6245225;28;20375;-82
2023/04/25 07:48:57;;;;;;;8.67;6.13;;;8.50;67.50;;;;;;6245100;28;20365;-82
2023/04/25 07:52:00;;;;;;;11.77;6.30;;;8.60;67.10;;;;;;6247275;28;20231;-83
2023/04/25 07:55:05;;;;;;;11.80;6.87;;;8.60;65.80;;;;;;6239943;28;20238;-83
2023/04/25 07:58:08;;;;;;;11.90;6.43;;;8.70;65.30;;;;;;6242790;28;20226;-83
2023/04/25 08:01:11;;;;;;;10.77;6.30;;;8.90;64.90;;;;;;6246653;28;20254;-82
2023/04/25 08:04:14;;;;;;;11.13;6.70;;;8.90;64.70;;;;;;6243991;28;20246;-83
2023/04/25 08:07:18;;;;;;;17.00;6.30;;;9.00;63.90;;;;;;6239407;28;20242;-81
2023/04/25 08:10:23;;;;;;;11.60;6.43;;;8.90;63.30;;;;;;6238993;28;20677;-82
2023/04/25 08:13:26;;;;;;;13.00;6.80;;;8.80;63.60;;;;;;6250127;28;20250;-83
2023/04/25 08:16:29;;;;;;;12.10;6.50;;;9.00;63.20;;;;;;6240919;28;20243;-82
2023/04/25 08:19:32;;;;;;;9.33;6.37;;;9.20;61.90;;;;;;6239298;28;20422;-83
2023/04/25 08:22:35;;;;;;;14.83;6.60;;;9.20;61.40;;;;;;6251985;28;20786;-83
2023/04/25 08:25:40;;;;;;;13.77;5.93;;;9.10;62.00;;;;;;6245791;28;20234;-82
2023/04/25 08:28:43;;;;;;;16.63;6.50;;;9.20;62.80;;;;;;6259782;28;20603;-81
2023/04/25 08:31:46;;;;;;;20.33;6.53;;;9.40;62.80;;;;;;6258066;28;20327;-80
2023/04/25 08:34:50;;;;;;;9.27;6.03;;;9.60;62.30;;;;;;6255937;28;20312;-82
2023/04/25 08:37:54;;;;;;;16.17;6.33;;;9.80;60.50;;;;;;6265201;28;20312;-82
2023/04/25 08:41:00;;;;;;;18.77;6.67;;;9.80;60.60;;;;;;6268322;28;20252;-83
2023/04/25 08:44:04;;;;;;;18.97;8.87;;;10.00;59.70;;;;;;6262330;28;20230;-81
2023/04/25 08:47:08;;;;;;;18.13;6.63;;;10.00;58.70;;;;;;6267805;28;20234;-80
2023/04/25 08:50:11;;;;;;;12.43;5.70;;;10.00;58.90;;;;;;6267163;28;20245;-84
2023/04/25 08:53:19;;;;;;;13.67;6.30;;;10.00;58.10;;;;;;6240697;28;20235;-83
2023/04/25 08:56:23;;;;;;;13.23;4.97;;;10.10;57.40;;;;;;6261360;28;20245;-83
2023/04/25 08:59:27;;;;;;;16.97;5.63;;;10.10;56.20;;;;;;6264997;28;20746;-81
2023/04/25 09:02:31;;;;;;;15.00;5.00;;;10.20;55.70;;;;;;6272406;28;20261;-79
2023/04/25 09:05:35;;;;;;;10.87;5.30;;;10.40;54.90;;;;;;6261407;28;20238;-82
2023/04/25 09:08:39;;;;;;;11.60;5.47;;;10.40;54.50;;;;;;6258968;28;20226;-84
2023/04/25 09:11:44;;;;;;;10.87;5.20;;;10.50;54.30;;;;;;6245594;28;20733;-83
2023/04/25 09:15:08;;;;;;;14.00;5.97;;;10.50;53.60;;;;;;6240684;28;20726;-80
2023/04/25 09:18:11;;;;;;;9.53;4.87;;;10.60;53.70;;;;;;6257102;28;20325;-81
2023/04/25 09:21:15;;;;;;;10.47;4.97;;;10.70;52.90;;;;;;6269328;28;20257;-82
2023/04/25 09:24:30;;;;;;;11.67;5.10;;;10.80;52.50;;;;;;6267306;28;20248;-82
2023/04/25 09:27:34;;;;;;;7.50;4.07;;;11.00;52.40;;;;;;6248239;28;20253;-81
2023/04/25 09:30:38;;;;;;;6.50;4.17;;;11.40;51.90;;;;;;6247377;28;20243;-79
2023/04/25 09:33:44;;;;;;;10.40;4.73;;;11.50;51.00;;;;;;6251809;28;20815;-80
2023/04/25 09:36:47;;;;;;;9.97;4.70;;;11.50;51.20;;;;;;6257570;28;20679;-80
2023/04/25 09:39:52;;;;;;;8.10;4.43;;;11.60;51.40;;;;;;6264924;28;20241;-82
2023/04/25 09:42:57;;;;;;;13.43;5.40;;;11.50;50.50;;;;;;6261296;28;20272;-81
2023/04/25 09:46:00;;;;;;;8.63;4.43;;;11.50;51.40;;;;;;6257883;28;20254;-80
2023/04/25 09:49:08;;;;;;;7.83;4.07;;;11.40;50.40;;;;;;6255922;28;20316;-82
2023/04/25 09:52:15;;;;;;;8.23;4.77;;;11.20;49.30;;;;;;6238925;28;20265;-81
2023/04/25 09:55:19;;;;;;;9.27;4.90;;;11.30;49.60;;;;;;6243336;28;20223;-81
2023/04/25 09:58:25;;;;;;;10.20;4.37;;;11.40;48.90;;;;;;6234393;28;20802;-83
2023/04/25 10:01:29;;;;;;;5.43;4.33;;;11.40;48.70;;;;;;6240225;28;20242;-82
2023/04/25 10:04:36;;;;;;;9.47;4.43;;;11.20;48.40;;;;;;6239929;28;20231;-82
2023/04/25 10:07:41;;;;;;;8.57;4.40;;;11.10;48.70;;;;;;6239224;28;20866;-81
2023/04/25 10:10:44;;;;;;;7.20;4.47;;;10.90;49.30;;;;;;6230452;28;20249;-81
2023/04/25 10:13:49;;;;;;;11.07;4.80;;;10.90;49.30;;;;;;6242208;28;20246;-82
2023/04/25 10:16:55;;;;;;;8.83;4.70;;;11.10;48.40;;;;;;6263300;28;20241;-83
2023/04/25 10:19:59;;;;;;;10.47;4.50;;;11.30;49.50;;;;;;6253466;28;20230;-79
2023/04/25 10:23:12;;;;;;;5.23;4.43;;;11.30;48.70;;;;;;6250038;28;20240;-81
2023/04/25 10:26:16;;;;;;;4.10;3.70;;;11.30;48.30;;;;;;6261510;28;20839;-82
2023/04/25 10:29:25;;;;;;;5.07;3.93;;;11.20;47.80;;;;;;6255333;28;20368;-84
2023/04/25 10:32:28;;;;;;;7.83;4.63;;;11.30;48.30;;;;;;6259325;28;20237;-82
2023/04/25 10:35:35;;;;;;;9.53;4.77;;;11.50;48.30;;;;;;6253650;28;20687;-81
2023/04/25 10:38:38;;;;;;;5.50;4.27;;;11.30;48.40;;;;;;6271385;28;20238;-81
2023/04/25 10:41:49;;;;;;;6.90;3.70;;;11.10;48.80;;;;;;6263492;28;20417;-80
2023/04/25 10:45:06;;;;;;;5.83;4.20;;;11.20;48.50;;;;;;6251186;28;20229;-82
2023/04/25 10:48:26;;;;;;;4.97;3.60;;;11.20;48.70;;;;;;6242318;28;20313;-80
2023/04/25 10:51:33;;;;;;;5.03;4.00;;;11.40;47.80;;;;;;6233982;28;20725;-81
2023/04/25 10:54:57;;;;;;;5.83;4.17;;;11.40;48.50;;;;;;6231139;28;20308;-82
2023/04/25 10:58:01;;;;;;;6.30;3.67;;;11.40;48.00;;;;;;6246001;28;20360;-81
2023/04/25 11:01:07;;;;;;;5.67;3.70;;;11.40;48.40;;;;;;6243080;28;21391;-80
2023/04/25 11:04:24;;;;;;;7.37;4.00;;;11.30;48.10;;;;;;6255029;28;20226;-82
2023/04/25 11:07:38;;;;;;;5.80;4.47;;;11.40;47.70;;;;;;6253982;28;20226;-83
2023/04/25 11:10:42;;;;;;;9.30;4.17;;;11.50;47.80;;;;;;6236732;28;20249;-82
2023/04/25 11:13:45;;;;;;;4.60;4.03;;;11.90;47.90;;;;;;6234275;28;20247;-80
2023/04/25 11:16:55;;;;;;;7.80;4.20;;;12.00;47.00;;;;;;6236001;28;20258;-81
2023/04/25 11:20:06;;;;;;;6.07;4.13;;;11.70;46.90;;;;;;6239696;28;20242;-82
2023/04/25 11:23:09;;;;;;;4.53;3.83;;;11.50;47.50;;;;;;6249525;28;20231;-80
2023/04/25 11:26:12;;;;;;;7.37;3.83;;;11.10;48.20;;;;;;6262005;28;20261;-82
2023/04/25 11:29:15;;;;;;;6.83;4.20;;;10.90;48.20;;;;;;6233552;28;20233;-80
2023/04/25 11:32:20;;;;;;;7.03;4.70;;;10.60;48.70;;;;;;6246541;28;20231;-80
2023/04/25 11:35:25;;;;;;;7.83;4.40;;;10.50;49.50;;;;;;6230512;28;20241;-80
2023/04/25 11:38:28;;;;;;;6.80;4.20;;;10.50;48.20;;;;;;6249377;28;20734;-81
2023/04/25 11:41:32;;;;;;;8.20;3.80;;;10.50;48.00;;;;;;6259885;28;20254;-81
2023/04/25 11:44:35;;;;;;;3.53;3.20;;;10.50;46.80;;;;;;6261989;28;20265;-82
2023/04/25 11:47:39;;;;;;;6.07;3.87;;;10.50;47.30;;;;;;6259333;28;20242;-82
2023/04/25 11:50:43;;;;;;;8.93;3.80;;;10.50;46.70;;;;;;6245874;28;20699;-80
2023/04/25 11:53:46;;;;;;;7.70;4.07;;;10.60;46.10;;;;;;6236746;28;20825;-83
2023/04/25 11:56:50;;;;;;;5.43;3.63;;;10.60;46.40;;;;;;6256475;28;20731;-82
2023/04/25 11:59:53;;;;;;;8.10;3.20;;;10.80;46.20;;;;;;6242394;28;20625;-80
2023/04/25 12:02:58;;;;;;;5.90;3.50;;;10.80;46.00;;;;;;6256111;28;20242;-80
2023/04/25 12:06:05;;;;;;;6.77;3.70;;;11.00;45.90;;;;;;6255834;28;20701;-80
2023/04/25 12:09:10;;;;;;;5.30;4.00;;;11.00;45.70;;;;;;6262416;28;20230;-80
2023/04/25 12:12:13;;;;;;;4.63;3.90;;;11.10;45.90;;;;;;6264271;28;20230;-83
2023/04/25 12:15:19;;;;;;;7.47;4.30;;;11.10;46.30;;;;;;6259442;28;20844;-81
2023/04/25 12:18:27;;;;;;;8.60;3.77;;;11.00;46.70;;;;;;6258265;28;20274;-80
2023/04/25 12:21:31;;;;;;;7.20;5.17;;;10.80;47.20;;;;;;6243915;28;20249;-81
2023/04/25 12:24:37;;;;;;;5.50;4.30;;;10.70;48.40;;;;;;6257996;28;20253;-81
2023/04/25 12:27:43;;;;;;;5.37;4.00;;;10.80;46.90;;;;;;6272948;28;20248;-82
2023/04/25 12:31:00;;;;;;;4.10;3.63;;;10.70;46.40;;;;;;6261885;28;20316;-82
2023/04/25 12:34:05;;;;;;;6.83;3.77;;;10.90;45.50;;;;;;6233724;28;20332;-81
2023/04/25 12:37:08;;;;;;;4.97;4.30;;;11.00;45.20;;;;;;6242952;28;20234;-82
2023/04/25 12:40:11;;;;;;;5.13;3.60;;;11.30;44.90;;;;;;6242842;28;20232;-81
2023/04/25 12:43:14;;;;;;;6.90;3.43;;;11.50;44.90;;;;;;6234757;28;20388;-80
2023/04/25 12:46:18;;;;;;;7.33;3.67;;;11.70;44.80;;;;;;6240485;28;20495;-82
2023/04/25 12:49:23;;;;;;;6.03;3.97;;;11.70;45.30;;;;;;6242939;28;20287;-81
2023/04/25 12:52:26;;;;;;;5.93;4.13;;;11.70;45.00;;;;;;6242692;28;20245;-80
2023/04/25 12:55:29;;;;;;;5.10;3.70;;;11.40;45.50;;;;;;6245438;28;20709;-81
2023/04/25 12:58:33;;;;;;;5.33;3.70;;;11.40;46.40;;;;;;6243070;28;20273;-82
2023/04/25 13:01:36;;;;;;;7.37;4.37;;;11.40;46.20;;;;;;6242908;28;20615;-80
2023/04/25 13:04:40;;;;;;;4.33;3.93;;;11.50;45.50;;;;;;6242791;28;20605;-80
2023/04/25 13:07:44;;;;;;;4.60;3.37;;;11.20;45.60;;;;;;6241289;28;20242;-79
2023/04/25 13:10:48;;;;;;;4.53;3.60;;;11.00;45.50;;;;;;6238556;28;20298;-81
2023/04/25 13:13:51;;;;;;;3.80;3.50;;;11.30;45.70;;;;;;6262189;28;20290;-81
2023/04/25 13:16:55;;;;;;;4.97;3.30;;;11.30;45.40;;;;;;6257789;28;20802;-83
2023/04/25 13:19:59;;;;;;;5.00;3.30;;;11.40;44.80;;;;;;6256897;28;20641;-82
2023/04/25 13:23:02;;;;;;;3.70;3.37;;;11.40;45.00;;;;;;6257962;28;20246;-81
2023/04/25 13:26:05;;;;;;;5.80;3.23;;;11.50;45.10;;;;;;6247221;28;20264;-81
2023/04/25 13:29:09;;;;;;;4.33;3.10;;;11.90;44.60;;;;;;6222335;28;20233;-82
2023/04/25 13:32:12;;;;;;;3.20;2.90;;;12.20;44.60;;;;;;6252466;28;20249;-79
2023/04/25 13:35:18;;;;;;;4.13;3.00;;;12.10;45.00;;;;;;6248314;28;20857;-81
2023/04/25 13:38:22;;;;;;;4.30;3.27;;;12.10;45.00;;;;;;6269565;28;20255;-82
2023/04/25 13:41:25;;;;;;;4.53;3.17;;;11.90;45.50;;;;;;6261170;28;20408;-83
2023/04/25 13:44:28;;;;;;;3.37;3.17;;;11.70;46.00;;;;;;6279755;28;20301;-82
2023/04/25 13:47:31;;;;;;;5.17;3.67;;;11.70;45.90;;;;;;6262451;28;20345;-81
2023/04/25 13:50:36;;;;;;;3.73;3.20;;;11.50;46.40;;;;;;6244362;28;20253;-79
2023/04/25 13:53:39;;;;;;;3.57;3.40;;;11.70;46.80;;;;;;6241578;28;20413;-81
2023/04/25 13:56:42;;;;;;;3.90;3.60;;;11.70;46.50;;;;;;6242387;28;20234;-79
2023/04/25 13:59:45;;;;;;;3.40;3.10;;;12.00;46.40;;;;;;6245289;28;20372;-81
2023/04/25 14:02:49;;;;;;;3.80;3.37;;;11.90;46.60;;;;;;6239577;28;20239;-81
2023/04/25 14:05:56;;;;;;;3.53;3.20;;;11.80;45.70;;;;;;6252627;28;20481;-81
2023/04/25 14:09:00;;;;;;;5.00;3.73;;;11.80;47.00;;;;;;6246808;28;20285;-81
2023/04/25 14:12:05;;;;;;;3.80;3.40;;;11.60;47.50;;;;;;6259987;28;20249;-79
2023/04/25 14:15:10;;;;;;;3.87;3.57;;;11.50;47.50;;;;;;6259728;28;20242;-80
2023/04/25 14:18:13;;;;;;;7.83;3.40;;;11.40;47.40;;;;;;6255988;28;20229;-80
2023/04/25 14:21:20;;;;;;;4.10;3.40;;;11.10;47.20;;;;;;6270764;28;20248;-80
2023/04/25 14:24:23;;;;;;;8.70;3.90;;;10.80;47.40;;;;;;6262929;28;20230;-81
2023/04/25 14:27:27;;;;;;;5.10;3.40;;;10.60;47.60;;;;;;6258390;28;20237;-82
2023/04/25 14:30:31;;;;;;;3.80;3.47;;;10.60;48.10;;;;;;6263352;28;20245;-82
2023/04/25 14:33:35;;;;;;;3.53;3.30;;;10.50;48.20;;;;;;6259353;28;20287;-80
2023/04/25 14:36:40;;;;;;;3.40;3.20;;;10.40;47.70;;;;;;6263304;28;20295;-83
2023/04/25 14:39:43;;;;;;;5.90;3.00;;;10.30;47.60;;;;;;6275311;28;20234;-81
2023/04/25 14:42:48;;;;;;;4.30;3.17;;;10.30;47.80;;;;;;6267224;28;20267;-80
2023/04/25 14:45:51;;;;;;;4.00;2.90;;;10.40;47.90;;;;;;6256620;28;20233;-80
2023/04/25 14:48:55;;;;;;;4.63;3.53;;;10.70;48.40;;;;;;6267957;28;20709;-80
2023/04/25 14:52:00;;;;;;;4.53;3.43;;;11.00;47.40;;;;;;6288696;28;20467;-81
2023/04/25 14:55:05;;;;;;;4.00;3.60;;;11.30;47.20;;;;;;6268847;28;20261;-81
2023/04/25 14:58:08;;;;;;;4.40;3.93;;;11.40;47.30;;;;;;6267373;28;20238;-82
2023/04/25 15:01:12;;;;;;;4.20;3.80;;;11.10;48.60;;;;;;6274261;28;20285;-82
2023/04/25 15:04:17;;;;;;;4.47;3.80;;;10.80;48.70;;;;;;6270571;28;20237;-82
2023/04/25 15:07:21;;;;;;;3.67;3.37;;;10.50;49.00;;;;;;6293383;28;20693;-80
2023/04/25 15:10:24;;;;;;;3.40;3.30;;;10.40;49.50;;;;;;6296099;28;20291;-82
2023/04/25 15:13:28;;;;;;;3.83;3.37;;;10.10;50.10;;;;;;6293398;28;20420;-81
2023/04/25 15:16:31;;;;;;;3.17;2.90;;;10.00;50.40;;;;;;6263209;28;20717;-80
2023/04/25 15:19:36;;;;;;;3.93;3.00;;;10.00;50.50;;;;;;6252883;28;20340;-79
2023/04/25 15:22:42;;;;;;;4.20;3.00;;;9.90;50.50;;;;;;6244223;28;20485;-80
2023/04/25 15:25:45;;;;;;;3.80;3.00;;;10.00;50.80;;;;;;6242265;28;20422;-81
2023/04/25 15:28:49;;;;;;;5.20;3.50;;;10.00;50.10;;;;;;6238991;28;20234;-80
2023/04/25 15:31:52;;;;;;;3.10;2.90;;;10.10;50.20;;;;;;6258870;28;20254;-80
2023/04/25 15:34:56;;;;;;;3.13;2.67;;;10.30;49.30;;;;;;6240657;28;20258;-80
2023/04/25 15:38:01;;;;;;;7.80;5.70;;;10.40;49.00;;;;;;6258685;28;20475;-80
2023/04/25 15:41:05;;;;;;;2.87;2.77;;;10.60;48.40;;;;;;6266617;28;20265;-81
2023/04/25 15:44:09;;;;;;;2.80;2.70;;;10.50;48.10;;;;;;6263110;28;20218;-80
2023/04/25 15:47:13;;;;;;;7.13;2.63;;;10.50;48.30;;;;;;6280817;28;20237;-80
2023/04/25 15:50:16;;;;;;;3.17;2.87;;;10.50;48.50;;;;;;6267288;28;20226;-80
2023/04/25 15:53:20;;;;;;;3.23;3.00;;;10.50;48.60;;;;;;6255373;28;20368;-80
2023/04/25 15:56:24;;;;;;;4.47;3.40;;;10.40;49.20;;;;;;6261130;28;20359;-78
2023/04/25 15:59:27;;;;;;;2.70;2.50;;;10.30;49.20;;;;;;6299907;28;20339;-78
2023/04/25 16:02:31;;;;;;;3.00;2.60;;;10.20;49.20;;;;;;6282384;28;20213;-80
2023/04/25 16:05:34;;;;;;;4.57;2.60;;;10.20;49.40;;;;;;6284638;28;20222;-80
2023/04/25 16:08:38;;;;;;;4.27;3.03;;;10.20;49.70;;;;;;6270972;28;20366;-82
2023/04/25 16:11:41;;;;;;;3.50;2.83;;;10.20;50.10;;;;;;6271731;28;20266;-79
2023/04/25 16:14:45;;;;;;;3.77;3.47;;;10.20;49.60;;;;;;6269309;28;20240;-79
2023/04/25 16:17:48;;;;;;;3.27;3.00;;;10.10;48.40;;;;;;6255943;28;20255;-82
2023/04/25 16:20:53;;;;;;;2.93;2.63;;;10.10;47.50;;;;;;6244463;28;20304;-85
2023/04/25 16:23:58;;;;;;;4.87;3.07;;;10.00;48.30;;;;;;6246158;28;20231;-84
2023/04/25 16:27:01;;;;;;;3.57;3.10;;;10.00;48.40;;;;;;6247359;28;20242;-81
2023/04/25 16:30:10;;;;;;;3.30;3.00;;;10.00;48.30;;;;;;6247174;28;20392;-84
2023/04/25 16:33:13;;;;;;;4.20;2.90;;;9.90;48.40;;;;;;6246200;28;20238;-83
2023/04/25 16:36:16;;;;;;;3.47;3.00;;;9.90;48.00;;;;;;6244709;28;20619;-82
2023/04/25 16:39:21;;;;;;;2.73;2.60;;;9.80;47.50;;;;;;6245604;28;20239;-83
2023/04/25 16:42:25;;;;;;;2.90;2.80;;;9.60;47.70;;;;;;6237031;28;20253;-84
2023/04/25 16:45:29;;;;;;;3.13;2.83;;;9.60;47.70;;;;;;6240840;28;20588;-83
2023/04/25 16:48:33;;;;;;;2.80;2.60;;;9.60;48.20;;;;;;6237604;28;20325;-84
2023/04/25 16:51:36;;;;;;;3.40;2.70;;;9.50;47.70;;;;;;6241197;28;20245;-81
2023/04/25 16:54:41;;;;;;;3.83;2.90;;;9.40;47.70;;;;;;6242416;28;20242;-82
2023/04/25 16:57:44;;;;;;;3.13;2.73;;;9.40;48.20;;;;;;6243510;28;20231;-84
2023/04/25 17:00:47;;;;;;;5.03;3.37;;;9.40;48.20;;;;;;6242113;28;20841;-84